Time;durP1;ratioP1;P1;durP2;ratioP2;P2;SDS_P1;SDS_P2;PMS_P1;PMS_P2;Temp;Humidity;BMP_temperature;BMP_pressure;BME280_temperature;BME280_humidity;BME280_pressure;Samples;Min_cycle;Max_cycle;Signal;HPM_P1;HPM_P2
2021/09/17 00:01:31;;;;;;;;;;;13.80;99.90;;;12.65;100.00;95750.81;10550614;28;2083;-81
2021/09/17 00:06:34;;;;;;;;;;;13.70;99.90;;;12.57;100.00;95746.06;10537605;28;2197;-82
2021/09/17 00:11:37;;;;;;;;;;;13.60;99.90;;;12.39;100.00;95751.09;10557938;28;2337;-83
2021/09/17 00:16:39;;;;;;;;;;;13.50;99.90;;;12.24;100.00;95745.06;10564399;28;2138;-80
2021/09/17 00:21:42;;;;;;;;;;;13.40;99.90;;;11.98;100.00;95750.69;10570191;28;2648;-81
2021/09/17 00:26:46;;;;;;;;;;;13.20;99.90;;;11.82;100.00;95746.50;10556475;28;2160;-80
2021/09/17 00:31:49;;;;;;;;;;;13.00;99.90;;;11.72;100.00;95747.38;10547992;28;2182;-81
2021/09/17 00:36:51;;;;;;;;;;;12.90;99.90;;;11.63;100.00;95755.22;10589291;27;2487;-82
2021/09/17 00:41:54;;;;;;;;;;;12.90;99.90;;;11.52;100.00;95752.91;10557548;28;2215;-80
2021/09/17 00:46:57;;;;;;;;;;;12.70;99.90;;;11.41;100.00;95754.03;10577164;27;2274;-80
2021/09/17 00:52:00;;;;;;;;;;;12.60;99.90;;;11.36;100.00;95738.72;10578983;27;2127;-81
2021/09/17 00:57:03;;;;;;;;;;;12.60;99.90;;;11.41;100.00;95740.59;10600114;27;2107;-80
2021/09/17 01:02:06;;;;;;;;;;;12.50;99.90;;;11.50;100.00;95745.09;10607063;27;2206;-81
2021/09/17 01:07:09;;;;;;;;;;;12.50;99.90;;;11.65;100.00;95733.41;10602402;28;2274;-82
2021/09/17 01:12:13;;;;;;;;;;;12.60;99.90;;;11.67;100.00;95727.75;10557611;27;2094;-82
2021/09/17 01:17:17;;;;;;;;;;;12.70;99.90;;;11.78;100.00;95731.97;10617003;27;2053;-79
2021/09/17 01:22:29;;;;;;;;;;;12.70;99.90;;;11.85;100.00;95730.59;10583665;28;2088;-84
2021/09/17 01:27:38;;;;;;;;;;;12.80;99.90;;;11.95;100.00;95723.50;10592902;28;2216;-82
2021/09/17 01:32:42;;;;;;;;;;;12.80;99.90;;;11.93;100.00;95714.91;10610313;27;2103;-81
2021/09/17 01:37:45;;;;;;;;;;;12.90;99.90;;;11.88;100.00;95708.47;10594457;27;2456;-81
2021/09/17 01:42:48;;;;;;;;;;;12.80;99.90;;;11.90;100.00;95709.00;10598616;28;2113;-80
2021/09/17 01:47:51;;;;;;;;;;;12.80;99.90;;;11.95;100.00;95704.63;10580619;28;2050;-79
2021/09/17 01:52:54;;;;;;;;;;;12.80;99.90;;;12.00;100.00;95702.69;10579756;27;2291;-82
2021/09/17 01:57:56;;;;;;;;;;;12.90;99.90;;;12.01;100.00;95700.81;10588972;27;2278;-83
2021/09/17 02:03:01;;;;;;;;;;;12.90;99.90;;;12.00;100.00;95701.91;10576137;28;2192;-82
2021/09/17 02:08:04;;;;;;;;;;;12.80;99.90;;;12.00;100.00;95704.59;10563803;28;2161;-82
2021/09/17 02:13:07;;;;;;;;;;;12.80;99.90;;;11.97;100.00;95705.97;10571457;28;2056;-83
2021/09/17 02:18:10;;;;;;;;;;;12.90;99.90;;;11.92;100.00;95707.91;10569552;28;2314;-80
2021/09/17 02:23:14;;;;;;;;;;;12.90;99.90;;;11.88;100.00;95713.03;10596921;28;2056;-82
2021/09/17 02:28:17;;;;;;;;;;;12.90;99.90;;;11.85;100.00;95714.44;10573514;28;2379;-81
2021/09/17 02:33:20;;;;;;;;;;;12.80;99.90;;;11.86;100.00;95720.63;10584454;28;2164;-80
2021/09/17 02:38:23;;;;;;;;;;;12.80;99.90;;;11.92;100.00;95724.88;10583994;28;2186;-81
2021/09/17 02:43:26;;;;;;;;;;;12.90;99.90;;;11.84;100.00;95714.72;10567257;28;2161;-79
2021/09/17 02:48:29;;;;;;;;;;;12.90;99.90;;;11.85;100.00;95714.44;10576828;27;2290;-80
2021/09/17 02:53:32;;;;;;;;;;;12.80;99.90;;;11.90;100.00;95716.28;10591779;27;2135;-81
2021/09/17 02:58:36;;;;;;;;;;;12.90;99.90;;;11.93;100.00;95714.91;10594155;27;2306;-79
2021/09/17 03:03:39;;;;;;;;;;;12.80;99.90;;;12.09;100.00;95713.69;10569806;27;2139;-81
2021/09/17 03:08:42;;;;;;;;;;;12.90;99.90;;;12.12;100.00;95713.09;10589612;27;2188;-82
2021/09/17 03:13:45;;;;;;;;;;;13.00;99.90;;;12.15;100.00;95712.53;10591501;27;2196;-81
2021/09/17 03:18:48;;;;;;;;;;;13.10;99.90;;;12.14;100.00;95705.53;10601620;27;2101;-83
2021/09/17 03:23:51;;;;;;;;;;;13.10;99.90;;;12.16;100.00;95704.16;10576824;27;2193;-80
2021/09/17 03:28:56;;;;;;;;;;;13.10;99.90;;;12.18;100.00;95712.78;10574026;27;2044;-81
2021/09/17 03:33:59;;;;;;;;;;;13.10;99.90;;;12.21;100.00;95705.19;10585888;27;2102;-81
2021/09/17 03:39:02;;;;;;;;;;;13.10;99.90;;;12.14;100.00;95703.63;10567950;28;2319;-80
2021/09/17 03:44:05;;;;;;;;;;;13.10;99.90;;;12.10;100.00;95707.22;10573873;28;2041;-81
2021/09/17 03:49:07;;;;;;;;;;;13.10;99.90;;;13.14;100.00;95693.03;10585371;27;2456;-80
2021/09/17 03:54:10;;;;;;;;;;;13.50;99.90;;;13.35;100.00;95691.66;10599597;27;2052;-81
2021/09/17 03:59:13;;;;;;;;;;;13.90;99.90;;;13.47;100.00;95693.91;10613137;27;2072;-81
2021/09/17 04:04:16;;;;;;;;;;;14.20;99.90;;;12.87;100.00;95689.06;10604239;28;2435;-81
2021/09/17 04:09:19;;;;;;;;;;;14.00;99.90;;;12.59;100.00;95689.94;10606373;28;2132;-79
2021/09/17 04:14:22;;;;;;;;;;;13.70;99.90;;;12.39;100.00;95686.41;10582294;27;2234;-80
2021/09/17 04:19:25;;;;;;;;;;;13.50;99.90;;;12.18;100.00;95687.72;10547684;28;2217;-80
2021/09/17 04:24:28;;;;;;;;;;;13.20;99.90;;;12.16;100.00;95700.69;10577416;27;2091;-82
2021/09/17 04:29:31;;;;;;;;;;;13.20;99.90;;;12.15;100.00;95697.19;10601756;27;2346;-80
2021/09/17 04:34:35;;;;;;;;;;;13.10;99.90;;;12.13;100.00;95693.94;10575136;27;1934;-80
2021/09/17 04:39:38;;;;;;;;;;;13.00;99.90;;;12.11;100.00;95700.72;10567314;27;2183;-81
2021/09/17 04:44:40;;;;;;;;;;;13.00;99.90;;;12.05;100.00;95701.84;10564081;27;2207;-81
2021/09/17 04:49:43;;;;;;;;;;;13.00;99.90;;;12.16;100.00;95703.38;10560374;27;2247;-78
2021/09/17 04:54:46;;;;;;;;;;;13.00;99.90;;;12.13;100.00;95703.94;10575032;28;2136;-78
2021/09/17 04:59:49;;;;;;;;;;;13.00;99.90;;;12.15;100.00;95709.81;10558688;28;2194;-76
2021/09/17 05:04:52;;;;;;;;;;;13.00;99.90;;;12.11;100.00;95717.69;10556633;28;2388;-78
2021/09/17 05:09:55;;;;;;;;;;;13.00;99.90;;;12.16;100.00;95714.16;10563208;28;2159;-77
2021/09/17 05:14:58;;;;;;;;;;;13.00;99.90;;;12.17;100.00;95718.44;10562923;27;2235;-78
2021/09/17 05:20:01;;;;;;;;;;;13.00;99.90;;;12.24;100.00;95720.81;10572881;28;2251;-79
2021/09/17 05:25:04;;;;;;;;;;;13.00;99.90;;;12.28;100.00;95719.97;10567101;28;2274;-79
2021/09/17 05:30:07;;;;;;;;;;;13.20;99.90;;;12.36;100.00;95724.72;10579472;28;2255;-79
2021/09/17 05:35:10;;;;;;;;;;;13.30;99.90;;;12.45;100.00;95725.69;10589065;28;2031;-78
2021/09/17 05:40:12;;;;;;;;;;;13.20;99.90;;;12.92;100.00;95715.97;10573772;28;2247;-76
2021/09/17 05:45:15;;;;;;;;;;;13.50;99.90;;;12.94;100.00;95723.78;10582903;28;2109;-78
2021/09/17 05:50:18;;;;;;;;;;;13.70;99.90;;;12.99;100.00;95724.53;10549760;27;2275;-78
2021/09/17 05:55:26;;;;;;;;;;;13.70;99.90;;;13.06;100.00;95726.84;10561330;28;2039;-78
2021/09/17 06:00:29;;;;;;;;;;;13.80;99.90;;;13.13;100.00;95737.28;10568808;28;2168;-78
2021/09/17 06:05:32;;;;;;;;;;;13.90;99.90;;;13.20;100.00;95733.16;10590327;28;2184;-76
2021/09/17 06:10:35;;;;;;;;;;;13.90;99.90;;;13.12;100.00;95741.09;10591469;28;2071;-77
2021/09/17 06:15:38;;;;;;;;;;;14.00;99.90;;;13.29;100.00;95741.41;10575553;28;2151;-78
2021/09/17 06:20:41;;;;;;;;;;;14.00;99.90;;;13.35;100.00;95729.44;10599306;28;2090;-78
2021/09/17 06:25:45;;;;;;;;;;;14.00;99.90;;;13.47;100.00;95735.22;10585902;28;2074;-78
2021/09/17 06:30:48;;;;;;;;;;;14.20;99.90;;;13.48;100.00;95728.72;10598020;28;2221;-78
2021/09/17 06:35:51;;;;;;;;;;;14.30;99.90;;;13.69;100.00;95728.44;10589365;27;2591;-78
2021/09/17 06:40:54;;;;;;;;;;;14.40;99.90;;;13.80;99.93;95729.84;10603045;28;2166;-77
2021/09/17 06:45:57;;;;;;;;;;;14.40;99.90;;;13.98;98.52;95726.31;10608188;28;2111;-78
2021/09/17 06:51:00;;;;;;;;;;;14.60;99.90;;;13.84;99.08;95725.47;10600504;28;2120;-78
2021/09/17 06:56:03;;;;;;;;;;;14.60;99.90;;;14.06;98.97;95728.34;10597612;27;2027;-74
2021/09/17 07:01:06;;;;;;;;;;;14.60;99.90;;;14.31;98.64;95726.28;10580618;27;2040;-75
2021/09/17 07:06:10;;;;;;;;;;;14.70;99.90;;;15.04;94.65;95722.72;10605307;27;1949;-78
2021/09/17 07:11:13;;;;;;;;;;;15.30;99.90;;;15.48;93.29;95733.97;10586643;27;2051;-77
2021/09/17 07:16:15;;;;;;;;;;;15.80;99.90;;;16.50;84.83;95724.16;10605651;27;2182;-77
2021/09/17 07:21:18;;;;;;;;;;;16.50;99.90;;;16.76;81.47;95729.72;10585596;27;2061;-77
2021/09/17 07:26:21;;;;;;;;;;;17.20;99.90;;;16.75;82.37;95723.50;10592865;28;1961;-77
2021/09/17 07:31:24;;;;;;;;;;;17.50;99.90;;;16.57;82.07;95727.22;10554521;28;1859;-82
2021/09/17 07:36:27;;;;;;;;;;;17.50;99.90;;;17.13;79.00;95731.13;10563047;28;2075;-79
2021/09/17 07:41:30;;;;;;;;;;;17.50;99.90;;;17.05;79.58;95725.66;10576704;27;2044;-78
2021/09/17 07:46:33;;;;;;;;;;;17.70;99.90;;;16.88;79.90;95721.00;10550210;27;2058;-76
2021/09/17 07:51:36;;;;;;;;;;;17.50;99.90;;;16.96;80.07;95725.66;10584746;27;2111;-77
2021/09/17 07:56:40;;;;;;;;;;;17.50;99.90;;;16.99;77.23;95722.31;10567813;28;2087;-76
2021/09/17 08:01:43;;;;;;;;;;;17.70;99.90;;;17.28;79.80;95714.38;10584382;28;1837;-78
2021/09/17 08:06:46;;;;;;;;;;;17.80;99.90;;;17.59;75.80;95718.09;10564443;27;2036;-77
2021/09/17 08:11:49;;;;;;;;;;;18.00;99.90;;;17.47;77.89;95722.22;10541906;28;2001;-78
2021/09/17 08:16:52;;;;;;;;;;;18.10;99.90;;;17.33;77.20;95726.22;10564745;27;2123;-76
2021/09/17 08:21:55;;;;;;;;;;;18.10;99.90;;;17.15;75.68;95725.38;10559749;28;2020;-76
2021/09/17 08:27:00;;;;;;;;;;;18.00;99.90;;;17.05;78.97;95731.91;10595685;27;2063;-78
2021/09/17 08:32:03;;;;;;;;;;;17.90;99.90;;;16.96;77.25;95731.88;10589133;27;1973;-77
2021/09/17 08:37:08;;;;;;;;;;;17.90;99.90;;;17.49;77.59;95727.34;10580552;27;1976;-80
2021/09/17 08:42:11;;;;;;;;;;;17.90;99.90;;;17.68;76.31;95719.66;10552514;27;2080;-75
2021/09/17 08:47:14;;;;;;;;;;;18.10;99.90;;;17.78;76.28;95726.75;10552027;27;1909;-76
2021/09/17 08:52:18;;;;;;;;;;;18.30;99.90;;;17.75;73.77;95728.19;10543442;28;1731;-78
2021/09/17 08:57:22;;;;;;;;;;;18.40;99.90;;;17.61;72.88;95730.22;10559711;28;1913;-76
2021/09/17 09:02:25;;;;;;;;;;;18.30;99.90;;;17.52;73.75;95734.88;10561562;28;2024;-77
2021/09/17 09:07:28;;;;;;;;;;;18.40;99.90;;;17.03;75.63;95734.94;10558453;27;2050;-77
2021/09/17 09:12:31;;;;;;;;;;;18.30;99.90;;;17.62;72.50;95728.31;10563178;28;2022;-77
2021/09/17 09:17:35;;;;;;;;;;;18.30;99.90;;;17.64;74.28;95718.72;10582253;27;1831;-77
2021/09/17 09:22:38;;;;;;;;;;;18.30;99.90;;;17.61;73.54;95722.06;10579048;28;1806;-78
2021/09/17 09:27:41;;;;;;;;;;;18.40;99.90;;;17.67;73.89;95720.00;10562234;28;1957;-78
2021/09/17 09:32:44;;;;;;;;;;;18.50;99.90;;;17.77;71.66;95706.13;10573043;28;1750;-77
2021/09/17 09:37:46;;;;;;;;;;;18.40;99.90;;;17.85;68.89;95701.78;10569564;28;2035;-78
2021/09/17 09:42:49;;;;;;;;;;;18.70;99.90;;;18.04;67.38;95702.25;10562991;28;1853;-78
2021/09/17 09:47:53;;;;;;;;;;;18.70;99.90;;;18.21;68.30;95695.97;10551043;28;2142;-78
2021/09/17 09:52:55;;;;;;;;;;;18.90;99.90;;;18.66;67.04;95685.41;10569509;28;2063;-77
2021/09/17 09:57:58;;;;;;;;;;;19.20;99.90;;;19.15;64.44;95681.19;10578098;28;2182;-76
2021/09/17 10:03:01;;;;;;;;;;;19.50;99.90;;;18.48;62.20;95683.88;10526706;28;2321;-75
2021/09/17 10:08:04;;;;;;;;;;;19.80;99.90;;;18.87;63.90;95675.41;10547218;28;2305;-78
2021/09/17 10:13:07;;;;;;;;;;;19.40;99.90;;;19.56;62.06;95673.34;10548197;28;2178;-78
2021/09/17 10:18:10;;;;;;;;;;;19.80;99.90;;;19.49;59.10;95671.16;10559692;28;2127;-77
2021/09/17 10:23:13;;;;;;;;;;;20.10;99.90;;;19.15;61.19;95669.50;10565442;28;2257;-78
2021/09/17 10:28:17;;;;;;;;;;;19.90;99.90;;;19.15;59.98;95669.50;10543637;28;2036;-76
2021/09/17 10:33:20;;;;;;;;;;;19.70;99.90;;;19.00;58.14;95672.78;10553820;28;2092;-78
2021/09/17 10:38:23;;;;;;;;;;;19.80;99.90;;;18.76;56.99;95663.28;10551906;28;2042;-77
2021/09/17 10:43:26;;;;;;;;;;;19.60;99.90;;;18.97;58.02;95662.56;10566272;28;2035;-78
2021/09/17 10:48:29;;;;;;;;;;;19.60;99.90;;;19.18;58.36;95653.25;10564935;28;2068;-78
2021/09/17 10:53:32;;;;;;;;;;;19.70;99.90;;;19.39;57.09;95656.00;10557289;28;2297;-77
2021/09/17 10:58:35;;;;;;;;;;;20.00;99.90;;;19.24;51.53;95656.59;10517004;28;2400;-76
2021/09/17 11:03:38;;;;;;;;;;;20.10;99.90;;;18.85;52.08;95657.81;10528846;28;2104;-78
2021/09/17 11:08:41;;;;;;;;;;;20.00;99.90;;;18.92;51.24;95654.56;10527650;28;2183;-81
2021/09/17 11:13:44;;;;;;;;;;;19.60;99.90;;;19.08;50.88;95647.41;10557083;28;2209;-81
2021/09/17 11:18:47;;;;;;;;;;;19.70;99.90;;;19.46;48.96;95652.72;10572311;28;2289;-77
2021/09/17 11:23:51;;;;;;;;;;;20.20;99.90;;;19.15;51.49;95651.22;10575997;28;2108;-78
2021/09/17 11:28:54;;;;;;;;;;;19.90;99.90;;;19.33;50.30;95643.69;10542013;28;2303;-77
2021/09/17 11:33:57;;;;;;;;;;;20.00;99.90;;;19.08;47.85;95647.41;10570981;27;2135;-75
2021/09/17 11:39:00;;;;;;;;;;;19.90;99.90;;;19.47;49.31;95642.63;10562537;28;2100;-76
2021/09/17 11:44:03;;;;;;;;;;;19.80;99.90;;;18.44;50.07;95644.81;10560158;28;2141;-76
2021/09/17 11:49:05;;;;;;;;;;;19.60;99.90;;;18.83;47.88;95635.53;10549229;28;2190;-76
2021/09/17 11:54:08;;;;;;;;;;;19.40;99.90;;;19.07;48.21;95637.63;10536529;28;2063;-75
2021/09/17 11:59:11;;;;;;;;;;;19.50;99.90;;;18.83;46.34;95624.63;10521269;28;2135;-76
2021/09/17 12:04:14;;;;;;;;;;;19.70;99.90;;;18.93;45.79;95623.47;10534216;28;2360;-76
2021/09/17 12:09:17;;;;;;;;;;;19.80;99.90;;;19.43;46.23;95624.22;10539330;28;2294;-77
2021/09/17 12:14:20;;;;;;;;;;;20.00;99.90;;;20.05;44.48;95621.75;10542104;28;2247;-76
2021/09/17 12:19:25;;;;;;;;;;;20.10;99.90;;;20.22;45.13;95624.25;10529495;28;2070;-77
2021/09/17 12:24:28;;;;;;;;;;;20.70;99.90;;;19.63;44.56;95616.38;10546786;28;2068;-76
2021/09/17 12:29:31;;;;;;;;;;;20.60;99.90;;;20.46;46.20;95620.81;10545413;28;2192;-77
2021/09/17 12:34:33;;;;;;;;;;;20.70;99.90;;;20.48;45.30;95619.31;10532886;28;2108;-79
2021/09/17 12:39:36;;;;;;;;;;;21.10;99.90;;;20.45;45.01;95614.56;10534073;28;2159;-77
2021/09/17 12:44:42;;;;;;;;;;;21.30;99.90;;;20.24;44.23;95611.09;10525838;28;2180;-78
2021/09/17 12:49:45;;;;;;;;;;;21.30;99.90;;;19.05;47.23;95609.94;10552256;28;2360;-77
2021/09/17 12:54:48;;;;;;;;;;;20.70;99.90;;;19.52;47.66;95606.97;10565420;28;2336;-77
2021/09/17 12:59:51;;;;;;;;;;;20.30;99.90;;;19.73;46.88;95605.06;10559803;28;2072;-78
2021/09/17 13:04:54;;;;;;;;;;;20.60;99.90;;;19.59;46.21;95610.00;10581303;27;2067;-77
2021/09/17 13:09:57;;;;;;;;;;;20.30;99.90;;;19.90;46.37;95613.06;10561481;28;2054;-76
2021/09/17 13:15:00;;;;;;;;;;;20.50;99.90;;;19.31;46.22;95601.56;10560734;28;2554;-74
2021/09/17 13:20:02;;;;;;;;;;;20.40;99.90;;;18.88;47.83;95600.75;10546459;28;2090;-73
2021/09/17 13:25:05;;;;;;;;;;;20.00;99.90;;;18.81;49.25;95611.34;10561930;28;1993;-76
2021/09/17 13:30:08;;;;;;;;;;;19.80;99.90;;;19.06;48.65;95603.34;10519948;28;2173;-78
2021/09/17 13:35:11;;;;;;;;;;;19.80;99.90;;;19.19;48.79;95594.13;10572581;28;2186;-77
2021/09/17 13:40:14;;;;;;;;;;;19.80;99.90;;;18.72;49.38;95593.50;10568175;28;2126;-74
2021/09/17 13:45:17;;;;;;;;;;;19.80;99.90;;;19.26;49.34;95585.41;10532142;27;2169;-73
2021/09/17 13:50:20;;;;;;;;;;;19.90;99.90;;;19.13;49.26;95585.34;10560277;28;2012;-80
2021/09/17 13:55:24;;;;;;;;;;;20.00;99.90;;;19.01;49.50;95576.31;10544525;28;2110;-79
2021/09/17 14:00:28;;;;;;;;;;;19.70;99.90;;;19.54;48.20;95582.94;10569852;27;2179;-79
2021/09/17 14:05:31;;;;;;;;;;;19.90;99.90;;;19.47;47.83;95582.66;10569063;28;1895;-78
2021/09/17 14:10:34;;;;;;;;;;;20.10;99.90;;;19.48;48.50;95581.53;10581618;28;2260;-76
2021/09/17 14:15:37;;;;;;;;;;;20.20;99.90;;;19.33;48.63;95583.72;10597839;28;2088;-75
2021/09/17 14:20:40;;;;;;;;;;;20.10;99.90;;;19.31;46.78;95566.94;10602436;28;2067;-77
2021/09/17 14:25:43;;;;;;;;;;;20.20;99.90;;;19.72;48.36;95573.44;10591659;28;1973;-77
2021/09/17 14:30:46;;;;;;;;;;;20.30;99.90;;;19.71;47.68;95569.13;10560088;28;2204;-77
2021/09/17 14:35:49;;;;;;;;;;;20.40;99.90;;;19.64;47.42;95577.06;10553399;28;2240;-78
2021/09/17 14:40:52;;;;;;;;;;;20.50;99.90;;;19.21;46.35;95569.25;10532436;28;2123;-78
2021/09/17 14:45:55;;;;;;;;;;;20.30;99.90;;;19.02;48.33;95569.72;10558804;28;2091;-76
2021/09/17 14:50:58;;;;;;;;;;;20.10;99.90;;;19.17;47.67;95564.47;10559205;28;2163;-78
2021/09/17 14:56:01;;;;;;;;;;;20.10;99.90;;;18.99;48.65;95567.69;10553747;27;2490;-76
2021/09/17 15:01:04;;;;;;;;;;;20.10;99.90;;;19.19;48.63;95555.97;10563101;28;2310;-75
2021/09/17 15:06:07;;;;;;;;;;;20.00;99.90;;;18.99;49.54;95556.78;10576608;28;2198;-76
2021/09/17 15:11:10;;;;;;;;;;;19.90;99.90;;;19.21;49.43;95559.16;10567389;27;2208;-74
2021/09/17 15:16:13;;;;;;;;;;;19.90;99.90;;;19.02;50.31;95550.66;10534948;27;2090;-75
2021/09/17 15:21:16;;;;;;;;;;;20.00;99.90;;;19.16;48.28;95556.66;10540241;27;2099;-75
2021/09/17 15:26:19;;;;;;;;;;;20.00;99.90;;;18.98;49.49;95557.91;10559380;28;2110;-75
2021/09/17 15:31:22;;;;;;;;;;;19.80;99.90;;;18.70;50.33;95566.56;10548128;27;2032;-76
2021/09/17 15:36:25;;;;;;;;;;;19.70;99.90;;;18.37;51.39;95556.34;10553309;28;2269;-79
2021/09/17 15:41:28;;;;;;;;;;;19.50;99.90;;;17.91;50.99;95564.53;10576055;28;2106;-77
2021/09/17 15:46:31;;;;;;;;;;;19.10;99.90;;;17.49;52.67;95558.84;10588742;27;2036;-75
2021/09/17 15:51:34;;;;;;;;;;;18.70;99.90;;;16.97;53.65;95558.91;10578821;28;2166;-77
2021/09/17 15:56:37;;;;;;;;;;;18.40;99.90;;;16.88;55.18;95558.09;10571735;28;2154;-77
2021/09/17 16:01:40;;;;;;;;;;;18.00;99.90;;;16.75;55.79;95555.22;10563653;28;2005;-78
2021/09/17 16:06:43;;;;;;;;;;;17.90;99.90;;;16.62;57.58;95558.06;10551700;28;2256;-77
2021/09/17 16:11:47;;;;;;;;;;;17.80;99.90;;;16.48;54.94;95550.06;10590053;28;2104;-77
2021/09/17 16:16:50;;;;;;;;;;;17.70;99.90;;;16.26;55.98;95547.44;10577526;28;2098;-78
2021/09/17 16:21:53;;;;;;;;;;;17.50;99.90;;;16.13;55.76;95547.22;10559541;28;2263;-79
2021/09/17 16:26:56;;;;;;;;;;;17.30;99.90;;;16.04;55.91;95554.53;10573255;28;2177;-77
2021/09/17 16:31:59;;;;;;;;;;;17.20;99.90;;;15.92;55.01;95551.63;10575604;28;2408;-77
2021/09/17 16:37:02;;;;;;;;;;;17.10;99.90;;;15.97;53.88;95548.78;10579628;28;2589;-78
2021/09/17 16:42:05;;;;;;;;;;;17.10;99.90;;;15.86;57.11;95555.59;10583445;27;2075;-78
2021/09/17 16:47:08;;;;;;;;;;;17.00;99.90;;;15.90;59.59;95557.38;10570503;28;2028;-77
2021/09/17 16:52:11;;;;;;;;;;;17.00;99.90;;;15.73;59.15;95559.19;10561411;27;2075;-77
2021/09/17 16:57:13;;;;;;;;;;;17.00;99.90;;;15.46;60.03;95562.81;10545918;28;2059;-77
2021/09/17 17:02:16;;;;;;;;;;;16.80;99.90;;;15.30;62.09;95570.53;10562046;28;2269;-77
2021/09/17 17:07:21;;;;;;;;;;;16.60;99.90;;;15.18;63.06;95562.16;10574924;28;2084;-77
2021/09/17 17:12:23;;;;;;;;;;;16.50;99.90;;;15.41;67.57;95566.47;10573294;28;2186;-78
2021/09/17 17:17:26;;;;;;;;;;;16.40;99.90;;;15.49;67.07;95568.41;10558421;28;2072;-78
2021/09/17 17:22:29;;;;;;;;;;;16.50;99.90;;;15.51;63.42;95568.91;10556284;28;2020;-77
2021/09/17 17:27:32;;;;;;;;;;;16.60;99.90;;;15.49;67.94;95568.41;10577911;28;2064;-78
2021/09/17 17:32:36;;;;;;;;;;;16.60;99.90;;;15.30;69.75;95565.91;10570320;28;1968;-77
2021/09/17 17:37:40;;;;;;;;;;;16.50;99.90;;;15.49;69.12;95567.63;10562870;28;2087;-78
2021/09/17 17:42:43;;;;;;;;;;;16.50;99.90;;;15.51;68.60;95568.91;10558518;28;2005;-78
2021/09/17 17:47:46;;;;;;;;;;;16.50;99.90;;;15.33;67.59;95575.31;10577344;28;2032;-78
2021/09/17 17:52:48;;;;;;;;;;;16.50;99.90;;;15.18;69.80;95573.00;10595788;28;1965;-78
2021/09/17 17:57:51;;;;;;;;;;;16.30;99.90;;;15.22;71.02;95576.69;10574230;28;2080;-78
2021/09/17 18:02:54;;;;;;;;;;;16.20;99.90;;;15.26;71.26;95583.06;10555579;28;2088;-79
2021/09/17 18:07:58;;;;;;;;;;;16.20;99.90;;;15.24;71.88;95583.38;10553308;28;2102;-80
2021/09/17 18:13:01;;;;;;;;;;;16.20;99.90;;;14.99;72.11;95584.78;10570664;28;2082;-79
2021/09/17 18:18:04;;;;;;;;;;;16.20;99.90;;;14.84;74.00;95590.56;10586658;27;1385;-79
2021/09/17 18:23:06;;;;;;;;;;;16.00;99.90;;;14.85;74.95;95595.66;10572570;28;1334;-79
2021/09/17 18:28:09;;;;;;;;;;;16.00;99.90;;;14.82;75.91;95593.56;10581589;28;1593;-77
2021/09/17 18:33:12;;;;;;;;;;;15.90;99.90;;;14.86;75.64;95599.16;10576682;28;1986;-80
2021/09/17 18:38:15;;;;;;;;;;;15.80;99.90;;;14.94;75.09;95606.53;10578850;27;1354;-78
2021/09/17 18:43:18;;;;;;;;;;;15.90;99.90;;;14.96;74.62;95607.06;10582088;27;1460;-79
2021/09/17 18:48:21;;;;;;;;;;;15.90;99.90;;;14.89;75.29;95612.09;10589297;27;1499;-79
2021/09/17 18:53:24;;;;;;;;;;;15.90;99.90;;;14.77;76.08;95628.06;10577852;28;1883;-79
2021/09/17 18:58:27;;;;;;;;;;;15.90;99.90;;;14.75;76.53;95619.41;10580041;28;1958;-77
2021/09/17 19:03:30;;;;;;;;;;;15.80;99.90;;;14.76;77.16;95618.31;10574488;28;1318;-79
2021/09/17 19:08:33;;;;;;;;;;;15.80;99.90;;;14.66;78.33;95621.25;10581492;28;1630;-81
2021/09/17 19:13:36;;;;;;;;;;;15.70;99.90;;;14.72;78.99;95626.25;10601176;27;1961;-80
2021/09/17 19:18:39;;;;;;;;;;;15.70;99.90;;;14.59;79.89;95622.47;10603496;28;1488;-79
2021/09/17 19:23:41;;;;;;;;;;;15.70;99.90;;;14.54;81.03;95614.44;10603334;27;1710;-80
2021/09/17 19:28:44;;;;;;;;;;;15.60;99.90;;;14.70;80.54;95616.84;10605367;27;1562;-80
2021/09/17 19:33:47;;;;;;;;;;;15.60;99.90;;;14.59;81.35;95610.84;10584757;28;1882;-79
2021/09/17 19:38:50;;;;;;;;;;;15.70;99.90;;;14.56;81.68;95617.63;10582197;27;1495;-79
2021/09/17 19:43:53;;;;;;;;;;;15.70;99.90;;;14.63;81.68;95611.00;10583957;27;2008;-79
2021/09/17 19:48:56;;;;;;;;;;;15.60;99.90;;;14.50;82.75;95608.03;10557327;28;2119;-79
2021/09/17 19:53:59;;;;;;;;;;;15.60;99.90;;;14.52;83.00;95605.03;10563368;27;2023;-78
2021/09/17 19:59:01;;;;;;;;;;;15.60;99.90;;;14.57;82.96;95608.44;10581293;27;2179;-78
2021/09/17 20:04:04;;;;;;;;;;;15.50;99.90;;;14.70;82.11;95606.03;10585503;27;2320;-79
2021/09/17 20:09:07;;;;;;;;;;;15.60;99.90;;;14.64;82.50;95616.16;10567641;27;2122;-78
2021/09/17 20:14:10;;;;;;;;;;;15.60;99.90;;;14.63;82.56;95611.00;10584600;27;2115;-79
2021/09/17 20:19:13;;;;;;;;;;;15.60;99.90;;;14.43;83.85;95607.59;10583215;27;2020;-78
2021/09/17 20:24:16;;;;;;;;;;;15.60;99.90;;;14.29;85.07;95607.63;10557544;27;2088;-74
2021/09/17 20:29:19;;;;;;;;;;;15.40;99.90;;;14.38;84.75;95609.59;10590586;27;2250;-79
2021/09/17 20:34:31;;;;;;;;;;;15.40;99.90;;;14.43;84.54;95604.09;10587350;28;2075;-80
2021/09/17 20:39:34;;;;;;;;;;;15.40;99.90;;;14.34;84.75;95601.31;10573485;27;2094;-79
2021/09/17 20:44:41;;;;;;;;;;;15.40;99.90;;;14.34;84.89;95598.59;10548495;28;2357;-79
2021/09/17 20:49:44;;;;;;;;;;;15.40;99.90;;;14.39;84.91;95606.63;10573797;28;2064;-78
2021/09/17 20:54:47;;;;;;;;;;;15.30;99.90;;;14.32;84.62;95606.22;10572330;27;2017;-79
2021/09/17 20:59:50;;;;;;;;;;;15.30;99.90;;;14.21;86.05;95602.91;10577905;27;1642;-80
2021/09/17 21:04:53;;;;;;;;;;;15.30;99.90;;;14.15;86.12;95600.63;10568782;27;2016;-79
2021/09/17 21:09:56;;;;;;;;;;;15.20;99.90;;;13.92;87.24;95600.50;10564584;28;2082;-81
2021/09/17 21:14:59;;;;;;;;;;;15.10;99.90;;;13.93;87.06;95604.81;10553268;28;2040;-80
2021/09/17 21:20:01;;;;;;;;;;;15.00;99.90;;;13.84;88.30;95600.38;10571235;28;2012;-80
2021/09/17 21:25:04;;;;;;;;;;;14.90;99.90;;;13.93;87.38;95599.41;10574167;27;1996;-80
2021/09/17 21:30:07;;;;;;;;;;;14.90;99.90;;;14.00;86.77;95610.63;10574708;28;2108;-80
2021/09/17 21:35:10;;;;;;;;;;;15.00;99.90;;;14.07;85.87;95613.72;10547178;28;2123;-80
2021/09/17 21:40:13;;;;;;;;;;;15.00;99.90;;;14.00;86.21;95610.63;10569463;28;2170;-79
2021/09/17 21:45:16;;;;;;;;;;;15.00;99.90;;;14.05;86.28;95607.81;10580667;27;2080;-79
2021/09/17 21:50:19;;;;;;;;;;;15.00;99.90;;;14.02;86.73;95608.41;10569384;28;2170;-79
2021/09/17 21:55:21;;;;;;;;;;;15.00;99.90;;;13.41;89.55;95611.38;10552376;28;2039;-79
2021/09/17 22:00:24;;;;;;;;;;;14.90;99.90;;;12.42;95.62;95621.13;10582268;28;2127;-79
2021/09/17 22:05:27;;;;;;;;;;;14.20;99.90;;;11.92;100.00;95616.34;10559895;28;2181;-79
2021/09/17 22:10:45;;;;;;;;;;;13.50;99.90;;;11.65;100.00;95623.03;10565249;28;2098;-80
2021/09/17 22:16:08;;;;;;;;;;;13.10;99.90;;;11.44;100.00;95626.97;10572463;28;2060;-80
2021/09/17 22:21:31;;;;;;;;;;;12.90;99.90;;;11.28;100.00;95624.41;10552329;28;2138;-80
2021/09/17 22:26:53;;;;;;;;;;;12.70;99.90;;;11.16;100.00;95626.66;10565201;28;2146;-80
2021/09/17 22:32:16;;;;;;;;;;;12.50;99.90;;;10.98;100.00;95628.13;10553328;28;2230;-80
2021/09/17 22:37:39;;;;;;;;;;;12.30;99.90;;;10.86;100.00;95626.88;10542956;28;2118;-81
2021/09/17 22:42:43;;;;;;;;;;;12.20;99.90;;;10.66;100.00;95623.22;10576085;28;2048;-80
2021/09/17 22:47:45;;;;;;;;;;;12.00;99.90;;;10.51;100.00;95617.94;10537102;28;2123;-79
2021/09/17 22:52:48;;;;;;;;;;;11.80;99.90;;;10.39;100.00;95620.13;10566962;28;2344;-79
2021/09/17 22:57:51;;;;;;;;;;;11.70;99.90;;;10.33;100.00;95619.34;10570837;28;2139;-80
2021/09/17 23:02:54;;;;;;;;;;;11.60;99.90;;;10.24;100.00;95621.81;10604789;28;2009;-80
2021/09/17 23:07:57;;;;;;;;;;;11.60;99.90;;;10.16;100.00;95619.66;10567655;28;2440;-79